Terminal Aerodrome Forecast
Issued by NWS Charleston, SC

Home | Current Version | Previous Version | Text Only | Print | Product List | Glossary On
Versions: 1 2 3 4 5 6 7 8 9 10 11 12 13 14 15 16 17 18 19 20 21
114
FTUS42 KCHS 311302 AAA
TAFSAV
TAF AMD
KSAV 311302Z 3113/0112 05008KT 6SM -SHRA SCT020 BKN025
     FM311400 07011KT P6SM VCSH OVC035
     FM312300 VRB03KT P6SM SCT035 BKN080
     FM010800 26006KT 6SM BR SCT008 BKN015=

USA.gov is the U.S. government's official web portal to all federal, state and local government web resources and services.